This is the latest recevied weather packets stored in our database for station/object KF7ROW. If no packets are shown the sender has not sent any weather packets the latest 10 day(s).
| Time | Temp. | Humidity | Pressure | Rain* | Wind** | Luminosity | Snow |
|---|---|---|---|---|---|---|---|
| 1778014175 | 13.89° C | 85% | 1021.2 hPa | 0 mm | - | 208 W/m² | - |
| 1778013873 | 13.89° C | 85% | 1021.2 hPa | 0 mm | - | 239 W/m² | - |
| 1778013570 | 14.44° C | 85% | 1021 hPa | 0 mm | - | 267 W/m² | - |
| 1778013266 | 14.44° C | 85% | 1021.2 hPa | 0 mm | - | 242 W/m² | - |
| 1778012962 | 14.44° C | 85% | 1021.2 hPa | 0 mm | - | 222 W/m² | - |
| 1778012659 | 14.44° C | 85% | 1021.2 hPa | 0 mm | - | 222 W/m² | - |
| 1778012355 | 13.89° C | 84% | 1021.3 hPa | 0 mm | - | 207 W/m² | - |
| 1778012052 | 13.89° C | 85% | 1021.3 hPa | 0 mm | - | 192 W/m² | - |
| 1778011751 | 14.44° C | 84% | 1021.4 hPa | 0 mm | - | 178 W/m² | - |
| 1778011447 | 14.44° C | 85% | 1021.4 hPa | 0 mm | - | 171 W/m² | - |
| 1778011143 | 14.44° C | 85% | 1021.5 hPa | 0 mm | - | 169 W/m² | - |
| 1778010840 | 13.89° C | 84% | 1021.4 hPa | 0 mm | - | 163 W/m² | - |
| 1778010537 | 14.44° C | 85% | 1021.3 hPa | 0 mm | - | 157 W/m² | - |
| 1778010235 | 14.44° C | 85% | 1021.4 hPa | 0 mm | - | 146 W/m² | - |
| 1778009935 | 14.44° C | 84% | 1021.4 hPa | 0 mm | - | 141 W/m² | - |
| 1778009633 | 14.44° C | 85% | 1021.3 hPa | 0 mm | - | 145 W/m² | - |
| 1778009330 | 13.89° C | 85% | 1021.2 hPa | 0 mm | - | 148 W/m² | - |
| 1778009029 | 13.89° C | 84% | 1021.3 hPa | 0 mm | - | 152 W/m² | - |
| 1778008726 | 14.44° C | 85% | 1021.2 hPa | 0 mm | - | 154 W/m² | - |
| 1778008424 | 14.44° C | 85% | 1021.1 hPa | 0 mm | - | 157 W/m² | - |
| 1778008121 | 13.89° C | 85% | 1021 hPa | 0 mm | - | 178 W/m² | - |
| 1778007816 | 13.89° C | 85% | 1021 hPa | 0 mm | - | 195 W/m² | - |
| 1778007512 | 13.89° C | 86% | 1021 hPa | 0 mm | - | 204 W/m² | - |
| 1778007209 | 13.89° C | 87% | 1021.2 hPa | 0 mm | - | 197 W/m² | - |
| 1778006905 | 13.89° C | 87% | 1021.1 hPa | 0 mm | - | 191 W/m² | - |
* Rain latest hour (hover to see other rain measurements)
** Current wind speed in m/s (hover to see current wind gust speed)